sensor_id;sensor_type;location;lat;lon;timestamp;pressure;altitude;pressure_sealevel;temperature;humidity
75359;BME280;64046;51.978;5.934;2023-08-20T00:00:19;101954.75;;;24.77;100.00
75359;BME280;64046;51.978;5.934;2023-08-20T00:02:58;101948.06;;;24.93;100.00
75359;BME280;64046;51.978;5.934;2023-08-20T00:05:33;101959.16;;;24.78;100.00
75359;BME280;64046;51.978;5.934;2023-08-20T00:08:10;101959.53;;;24.95;100.00
75359;BME280;64046;51.978;5.934;2023-08-20T00:10:41;101973.53;;;24.77;100.00
75359;BME280;64046;51.978;5.934;2023-08-20T00:13:13;101964.56;;;24.88;100.00
75359;BME280;64046;51.978;5.934;2023-08-20T00:15:43;101959.16;;;24.78;100.00
75359;BME280;64046;51.978;5.934;2023-08-20T00:18:21;101964.28;;;24.91;100.00
75359;BME280;64046;51.978;5.934;2023-08-20T00:20:51;101959.28;;;24.77;100.00
75359;BME280;64046;51.978;5.934;2023-08-20T00:23:25;101959.28;;;24.77;100.00
75359;BME280;64046;51.978;5.934;2023-08-20T00:25:55;101956.34;;;24.80;100.00
75359;BME280;64046;51.978;5.934;2023-08-20T00:28:27;101959.47;;;24.85;100.00
75359;BME280;64046;51.978;5.934;2023-08-20T00:31:00;101960.03;;;24.79;100.00
75359;BME280;64046;51.978;5.934;2023-08-20T00:33:36;101953.44;;;24.93;100.00
75359;BME280;64046;51.978;5.934;2023-08-20T00:36:05;101957.81;;;24.63;100.00
75359;BME280;64046;51.978;5.934;2023-08-20T00:38:38;101953.09;;;24.76;100.00
75359;BME280;64046;51.978;5.934;2023-08-20T00:41:15;101949.94;;;24.71;100.00
75359;BME280;64046;51.978;5.934;2023-08-20T00:43:46;101960.34;;;24.64;100.00
75359;BME280;64046;51.978;5.934;2023-08-20T00:46:19;101954.97;;;24.64;100.00
75359;BME280;64046;51.978;5.934;2023-08-20T00:48:52;101962.81;;;24.56;100.00
75359;BME280;64046;51.978;5.934;2023-08-20T00:51:22;101963.28;;;24.40;100.00
75359;BME280;64046;51.978;5.934;2023-08-20T00:53:52;101962.22;;;24.31;100.00
75359;BME280;64046;51.978;5.934;2023-08-20T00:56:22;101964.91;;;24.31;100.00
75359;BME280;64046;51.978;5.934;2023-08-20T00:58:55;101968.31;;;24.33;100.00
75359;BME280;64046;51.978;5.934;2023-08-20T01:01:27;101962.47;;;24.28;100.00
75359;BME280;64046;51.978;5.934;2023-08-20T01:04:01;101962.91;;;24.45;100.00
75359;BME280;64046;51.978;5.934;2023-08-20T01:06:41;101970.19;;;24.43;100.00
75359;BME280;64046;51.978;5.934;2023-08-20T01:09:23;101973.41;;;24.36;100.00
75359;BME280;64046;51.978;5.934;2023-08-20T01:11:59;101973.81;;;24.32;100.00
75359;BME280;64046;51.978;5.934;2023-08-20T01:14:30;101978.03;;;24.13;100.00
75359;BME280;64046;51.978;5.934;2023-08-20T01:17:02;101981.38;;;24.06;100.00
75359;BME280;64046;51.978;5.934;2023-08-20T01:19:38;101993.78;;;24.28;100.00
75359;BME280;64046;51.978;5.934;2023-08-20T01:22:29;101999.84;;;24.30;100.00
75359;BME280;64046;51.978;5.934;2023-08-20T01:25:15;101997.75;;;24.12;100.00
75359;BME280;64046;51.978;5.934;2023-08-20T01:27:52;101997.22;;;24.18;100.00
75359;BME280;64046;51.978;5.934;2023-08-20T01:30:30;101989.81;;;24.22;100.00
75359;BME280;64046;51.978;5.934;2023-08-20T01:33:02;101998.72;;;24.11;100.00
75359;BME280;64046;51.978;5.934;2023-08-20T01:35:36;102003.38;;;24.09;100.00
75359;BME280;64046;51.978;5.934;2023-08-20T01:38:20;102002.78;;;24.06;100.00
75359;BME280;64046;51.978;5.934;2023-08-20T01:40:54;102006.22;;;24.29;100.00
75359;BME280;64046;51.978;5.934;2023-08-20T01:43:26;102013.09;;;24.10;100.00
75359;BME280;64046;51.978;5.934;2023-08-20T01:46:01;102015.09;;;24.29;100.00
75359;BME280;64046;51.978;5.934;2023-08-20T01:48:34;102016.75;;;24.09;100.00
75359;BME280;64046;51.978;5.934;2023-08-20T01:51:05;102015.91;;;24.09;100.00
75359;BME280;64046;51.978;5.934;2023-08-20T01:53:36;102010.56;;;24.09;100.00
75359;BME280;64046;51.978;5.934;2023-08-20T01:56:11;102021.47;;;24.17;100.00
75359;BME280;64046;51.978;5.934;2023-08-20T01:58:43;102022.09;;;24.09;100.00
75359;BME280;64046;51.978;5.934;2023-08-20T02:01:16;102027.16;;;24.24;100.00
75359;BME280;64046;51.978;5.934;2023-08-20T02:03:47;102031.97;;;24.09;100.00
75359;BME280;64046;51.978;5.934;2023-08-20T02:06:19;102024.78;;;24.09;100.00
75359;BME280;64046;51.978;5.934;2023-08-20T02:08:55;102020.66;;;24.05;100.00
75359;BME280;64046;51.978;5.934;2023-08-20T02:11:25;102023.34;;;24.05;100.00
75359;BME280;64046;51.978;5.934;2023-08-20T02:13:58;102024.63;;;24.22;100.00
75359;BME280;64046;51.978;5.934;2023-08-20T02:16:30;102027.03;;;24.25;100.00
75359;BME280;64046;51.978;5.934;2023-08-20T02:19:03;102033.78;;;24.08;100.00
75359;BME280;64046;51.978;5.934;2023-08-20T02:21:35;102036.03;;;24.24;100.00
75359;BME280;64046;51.978;5.934;2023-08-20T02:24:08;102042.28;;;24.25;100.00
75359;BME280;64046;51.978;5.934;2023-08-20T02:26:40;102034.63;;;24.20;100.00
75359;BME280;64046;51.978;5.934;2023-08-20T02:29:10;102038.66;;;24.14;100.00
75359;BME280;64046;51.978;5.934;2023-08-20T02:31:43;102029.03;;;24.12;100.00
75359;BME280;64046;51.978;5.934;2023-08-20T02:34:15;102031.16;;;23.97;100.00
75359;BME280;64046;51.978;5.934;2023-08-20T02:36:46;102040.53;;;23.91;100.00
75359;BME280;64046;51.978;5.934;2023-08-20T02:39:18;102039.28;;;24.07;100.00
75359;BME280;64046;51.978;5.934;2023-08-20T02:41:48;102031.78;;;23.89;100.00
75359;BME280;64046;51.978;5.934;2023-08-20T02:44:17;102032.63;;;23.90;100.00
75359;BME280;64046;51.978;5.934;2023-08-20T02:46:49;102031.38;;;24.05;100.00
75359;BME280;64046;51.978;5.934;2023-08-20T02:49:20;102049.03;;;23.85;100.00
75359;BME280;64046;51.978;5.934;2023-08-20T02:51:49;102045.66;;;23.83;100.00
75359;BME280;64046;51.978;5.934;2023-08-20T02:54:20;102042.97;;;23.83;100.00
75359;BME280;64046;51.978;5.934;2023-08-20T02:56:52;102044.06;;;23.80;100.00
75359;BME280;64046;51.978;5.934;2023-08-20T02:59:24;102034.81;;;23.96;100.00
75359;BME280;64046;51.978;5.934;2023-08-20T03:01:58;102031.16;;;23.97;100.00
75359;BME280;64046;51.978;5.934;2023-08-20T03:04:28;102027.06;;;23.70;100.00
75359;BME280;64046;51.978;5.934;2023-08-20T03:07:03;102024.25;;;23.83;100.00
75359;BME280;64046;51.978;5.934;2023-08-20T03:09:37;102026.78;;;23.84;100.00
75359;BME280;64046;51.978;5.934;2023-08-20T03:12:08;102029.25;;;23.65;100.00
75359;BME280;64046;51.978;5.934;2023-08-20T03:14:39;102029.13;;;23.66;100.00
75359;BME280;64046;51.978;5.934;2023-08-20T03:17:11;102023.88;;;23.88;100.00
75359;BME280;64046;51.978;5.934;2023-08-20T03:19:54;102020.31;;;23.98;100.00
75359;BME280;64046;51.978;5.934;2023-08-20T03:22:26;102013.31;;;23.75;100.00
75359;BME280;64046;51.978;5.934;2023-08-20T03:24:57;102011.59;;;23.74;100.00
75359;BME280;64046;51.978;5.934;2023-08-20T03:27:28;102012.69;;;23.71;100.00
75359;BME280;64046;51.978;5.934;2023-08-20T03:30:03;102009.78;;;23.74;100.00
75359;BME280;64046;51.978;5.934;2023-08-20T03:32:37;102015.94;;;23.86;100.00
75359;BME280;64046;51.978;5.934;2023-08-20T03:35:12;102015.13;;;23.74;100.00
75359;BME280;64046;51.978;5.934;2023-08-20T03:37:44;102009.94;;;23.61;100.00
75359;BME280;64046;51.978;5.934;2023-08-20T03:40:17;102001.63;;;23.76;100.00
75359;BME280;64046;51.978;5.934;2023-08-20T03:42:48;102000.56;;;23.56;100.00
75359;BME280;64046;51.978;5.934;2023-08-20T03:45:20;101993.75;;;23.63;100.00
75359;BME280;64046;51.978;5.934;2023-08-20T03:47:53;102000.44;;;23.69;100.00
75359;BME280;64046;51.978;5.934;2023-08-20T03:50:22;102013.72;;;23.47;100.00
75359;BME280;64046;51.978;5.934;2023-08-20T03:52:53;102018.44;;;23.44;100.00
75359;BME280;64046;51.978;5.934;2023-08-20T03:55:23;102022.13;;;23.43;100.00
75359;BME280;64046;51.978;5.934;2023-08-20T03:57:57;102019.69;;;23.40;100.00
75359;BME280;64046;51.978;5.934;2023-08-20T04:00:27;102025.13;;;23.38;100.00
75359;BME280;64046;51.978;5.934;2023-08-20T04:03:00;102028.91;;;23.47;100.00
75359;BME280;64046;51.978;5.934;2023-08-20T04:05:36;102031.47;;;23.48;100.00
75359;BME280;64046;51.978;5.934;2023-08-20T04:08:09;102031.84;;;23.21;100.00
75359;BME280;64046;51.978;5.934;2023-08-20T04:10:42;102032.31;;;23.38;100.00
75359;BME280;64046;51.978;5.934;2023-08-20T04:13:17;102039.00;;;23.32;100.00
75359;BME280;64046;51.978;5.934;2023-08-20T04:15:49;102039.38;;;23.16;100.00
75359;BME280;64046;51.978;5.934;2023-08-20T04:18:23;102049.69;;;23.32;100.00
75359;BME280;64046;51.978;5.934;2023-08-20T04:20:58;102047.03;;;23.32;100.00
75359;BME280;64046;51.978;5.934;2023-08-20T04:23:30;102040.59;;;23.23;100.00
75359;BME280;64046;51.978;5.934;2023-08-20T04:26:02;102047.78;;;23.34;100.00
75359;BME280;64046;51.978;5.934;2023-08-20T04:28:39;102051.78;;;23.40;100.00
75359;BME280;64046;51.978;5.934;2023-08-20T04:31:08;102044.72;;;23.16;100.00
75359;BME280;64046;51.978;5.934;2023-08-20T04:33:51;102044.22;;;23.33;100.00
75359;BME280;64046;51.978;5.934;2023-08-20T04:36:45;102043.63;;;23.30;100.00
75359;BME280;64046;51.978;5.934;2023-08-20T04:39:18;102052.75;;;23.16;100.00
75359;BME280;64046;51.978;5.934;2023-08-20T04:41:52;102050.44;;;23.11;100.00
75359;BME280;64046;51.978;5.934;2023-08-20T04:44:26;102054.41;;;23.06;100.00
75359;BME280;64046;51.978;5.934;2023-08-20T04:46:57;102053.53;;;23.05;100.00
75359;BME280;64046;51.978;5.934;2023-08-20T04:49:29;102055.78;;;23.23;100.00
75359;BME280;64046;51.978;5.934;2023-08-20T04:52:00;102048.19;;;23.05;100.00
75359;BME280;64046;51.978;5.934;2023-08-20T04:54:33;102050.06;;;23.27;100.00
75359;BME280;64046;51.978;5.934;2023-08-20T04:57:07;102053.19;;;23.10;100.00
75359;BME280;64046;51.978;5.934;2023-08-20T04:59:47;102056.75;;;23.22;100.00
75359;BME280;64046;51.978;5.934;2023-08-20T05:02:41;102064.22;;;23.05;100.00
75359;BME280;64046;51.978;5.934;2023-08-20T05:05:17;102062.94;;;23.22;100.00
75359;BME280;64046;51.978;5.934;2023-08-20T05:07:52;102061.84;;;23.13;100.00
75359;BME280;64046;51.978;5.934;2023-08-20T05:10:23;102056.94;;;23.07;100.00
75359;BME280;64046;51.978;5.934;2023-08-20T05:12:53;102072.13;;;22.95;100.00
75359;BME280;64046;51.978;5.934;2023-08-20T05:15:36;102078.53;;;23.17;100.00
75359;BME280;64046;51.978;5.934;2023-08-20T05:18:06;102078.31;;;22.96;100.00
75359;BME280;64046;51.978;5.934;2023-08-20T05:20:48;102086.53;;;23.17;100.00
75359;BME280;64046;51.978;5.934;2023-08-20T05:23:25;102072.91;;;23.20;100.00
75359;BME280;64046;51.978;5.934;2023-08-20T05:25:59;102088.34;;;23.28;100.00
75359;BME280;64046;51.978;5.934;2023-08-20T05:28:34;102085.31;;;23.44;100.00
75359;BME280;64046;51.978;5.934;2023-08-20T05:31:06;102080.47;;;23.26;100.00
75359;BME280;64046;51.978;5.934;2023-08-20T05:33:41;102088.50;;;23.49;100.00
75359;BME280;64046;51.978;5.934;2023-08-20T05:36:14;102091.16;;;23.60;100.00
75359;BME280;64046;51.978;5.934;2023-08-20T05:38:47;102086.28;;;23.65;100.00
75359;BME280;64046;51.978;5.934;2023-08-20T05:41:19;102084.72;;;23.63;100.00
75359;BME280;64046;51.978;5.934;2023-08-20T05:43:52;102090.06;;;23.74;100.00
75359;BME280;64046;51.978;5.934;2023-08-20T05:46:22;102090.78;;;23.65;100.00
75359;BME280;64046;51.978;5.934;2023-08-20T05:48:52;102087.88;;;23.68;100.00
75359;BME280;64046;51.978;5.934;2023-08-20T05:51:34;102092.72;;;23.97;100.00
75359;BME280;64046;51.978;5.934;2023-08-20T05:54:07;102094.94;;;24.03;100.00
75359;BME280;64046;51.978;5.934;2023-08-20T05:56:38;102096.16;;;23.99;100.00
75359;BME280;64046;51.978;5.934;2023-08-20T05:59:07;102099.41;;;24.02;100.00
75359;BME280;64046;51.978;5.934;2023-08-20T06:01:38;102102.44;;;24.09;100.00
75359;BME280;64046;51.978;5.934;2023-08-20T06:04:09;102103.78;;;24.15;100.00
75359;BME280;64046;51.978;5.934;2023-08-20T06:06:43;102101.63;;;24.41;100.00
75359;BME280;64046;51.978;5.934;2023-08-20T06:09:17;102096.06;;;24.33;100.00
75359;BME280;64046;51.978;5.934;2023-08-20T06:11:47;102102.22;;;24.45;100.00
75359;BME280;64046;51.978;5.934;2023-08-20T06:14:18;102098.75;;;24.54;100.00
75359;BME280;64046;51.978;5.934;2023-08-20T06:16:51;102101.97;;;24.80;100.00
75359;BME280;64046;51.978;5.934;2023-08-20T06:19:20;102096.06;;;24.65;100.00
75359;BME280;64046;51.978;5.934;2023-08-20T06:21:54;102097.66;;;24.89;98.36
75359;BME280;64046;51.978;5.934;2023-08-20T06:24:23;102091.03;;;24.72;98.27
75359;BME280;64046;51.978;5.934;2023-08-20T06:26:58;102092.38;;;24.99;96.45
75359;BME280;64046;51.978;5.934;2023-08-20T06:29:27;102107.78;;;24.85;96.29
75359;BME280;64046;51.978;5.934;2023-08-20T06:31:58;102095.75;;;25.01;95.17
75359;BME280;64046;51.978;5.934;2023-08-20T06:34:28;102101.19;;;24.90;94.60
75359;BME280;64046;51.978;5.934;2023-08-20T06:37:00;102095.81;;;25.11;93.19
75359;BME280;64046;51.978;5.934;2023-08-20T06:39:32;102095.09;;;25.09;92.96
75359;BME280;64046;51.978;5.934;2023-08-20T06:42:03;102105.78;;;24.99;92.27
75359;BME280;64046;51.978;5.934;2023-08-20T06:44:32;102095.88;;;24.99;91.70
75359;BME280;64046;51.978;5.934;2023-08-20T06:47:05;102102.69;;;25.03;91.34
75359;BME280;64046;51.978;5.934;2023-08-20T06:49:37;102100.31;;;25.10;91.31
75359;BME280;64046;51.978;5.934;2023-08-20T06:52:12;102109.25;;;25.42;89.07
75359;BME280;64046;51.978;5.934;2023-08-20T06:54:44;102101.06;;;25.43;88.07
75359;BME280;64046;51.978;5.934;2023-08-20T06:57:14;102105.88;;;25.39;87.49
75359;BME280;64046;51.978;5.934;2023-08-20T06:59:44;102103.84;;;25.63;85.48
75359;BME280;64046;51.978;5.934;2023-08-20T07:02:14;102099.44;;;25.52;85.45
75359;BME280;64046;51.978;5.934;2023-08-20T07:04:44;102104.13;;;25.60;83.91
75359;BME280;64046;51.978;5.934;2023-08-20T07:07:20;102101.53;;;25.89;82.71
75359;BME280;64046;51.978;5.934;2023-08-20T07:09:50;102093.16;;;25.72;83.21
75359;BME280;64046;51.978;5.934;2023-08-20T07:12:20;102105.22;;;25.88;82.47
75359;BME280;64046;51.978;5.934;2023-08-20T07:14:58;102105.78;;;25.91;82.01
75359;BME280;64046;51.978;5.934;2023-08-20T07:17:29;102104.78;;;25.93;80.56
75359;BME280;64046;51.978;5.934;2023-08-20T07:20:04;102102.66;;;25.96;80.79
75359;BME280;64046;51.978;5.934;2023-08-20T07:22:39;102106.28;;;26.26;79.34
75359;BME280;64046;51.978;5.934;2023-08-20T07:25:11;102105.03;;;26.30;79.01
75359;BME280;64046;51.978;5.934;2023-08-20T07:27:46;102103.19;;;26.40;78.15
75359;BME280;64046;51.978;5.934;2023-08-20T07:30:19;102113.41;;;26.47;78.46
75359;BME280;64046;51.978;5.934;2023-08-20T07:32:52;102115.94;;;26.38;78.67
75359;BME280;64046;51.978;5.934;2023-08-20T07:35:30;102115.09;;;26.77;76.71
75359;BME280;64046;51.978;5.934;2023-08-20T07:38:04;102109.16;;;26.83;75.71
75359;BME280;64046;51.978;5.934;2023-08-20T07:40:33;102114.53;;;26.64;76.46
75359;BME280;64046;51.978;5.934;2023-08-20T07:43:06;102116.06;;;26.66;76.63
75359;BME280;64046;51.978;5.934;2023-08-20T07:45:37;102125.13;;;26.75;75.57
75359;BME280;64046;51.978;5.934;2023-08-20T07:48:07;102135.19;;;26.73;75.02
75359;BME280;64046;51.978;5.934;2023-08-20T07:50:39;102127.41;;;26.89;74.16
75359;BME280;64046;51.978;5.934;2023-08-20T07:53:11;102129.91;;;27.01;74.19
75359;BME280;64046;51.978;5.934;2023-08-20T07:55:47;102125.13;;;27.04;72.59
75359;BME280;64046;51.978;5.934;2023-08-20T07:58:16;102125.72;;;26.88;72.90
75359;BME280;64046;51.978;5.934;2023-08-20T08:00:50;102136.47;;;26.98;72.82
75359;BME280;64046;51.978;5.934;2023-08-20T08:03:19;102134.03;;;27.05;72.92
75359;BME280;64046;51.978;5.934;2023-08-20T08:05:50;102131.16;;;27.16;71.88
75359;BME280;64046;51.978;5.934;2023-08-20T08:08:24;102130.72;;;27.31;72.12
75359;BME280;64046;51.978;5.934;2023-08-20T08:10:55;102142.50;;;27.20;71.99
75359;BME280;64046;51.978;5.934;2023-08-20T08:13:27;102139.91;;;27.28;71.35
75359;BME280;64046;51.978;5.934;2023-08-20T08:15:56;102127.19;;;27.30;70.64
75359;BME280;64046;51.978;5.934;2023-08-20T08:18:29;102137.53;;;27.35;70.77
75359;BME280;64046;51.978;5.934;2023-08-20T08:21:02;102132.25;;;27.43;69.73
75359;BME280;64046;51.978;5.934;2023-08-20T08:23:37;102135.84;;;27.71;68.15
75359;BME280;64046;51.978;5.934;2023-08-20T08:26:14;102134.47;;;27.85;67.50
75359;BME280;64046;51.978;5.934;2023-08-20T08:28:45;102142.81;;;27.92;67.35
75359;BME280;64046;51.978;5.934;2023-08-20T08:31:17;102145.41;;;27.84;67.24
75359;BME280;64046;51.978;5.934;2023-08-20T08:33:50;102135.53;;;28.02;65.73
75359;BME280;64046;51.978;5.934;2023-08-20T08:36:26;102141.88;;;28.11;64.54
75359;BME280;64046;51.978;5.934;2023-08-20T08:38:59;102148.22;;;28.38;62.39
75359;BME280;64046;51.978;5.934;2023-08-20T08:41:29;102149.06;;;28.38;62.22
75359;BME280;64046;51.978;5.934;2023-08-20T08:44:01;102155.78;;;28.52;61.59
75359;BME280;64046;51.978;5.934;2023-08-20T08:46:44;102161.13;;;28.62;60.21
75359;BME280;64046;51.978;5.934;2023-08-20T08:49:15;102161.56;;;28.57;59.12
75359;BME280;64046;51.978;5.934;2023-08-20T08:51:47;102160.50;;;28.68;58.04
75359;BME280;64046;51.978;5.934;2023-08-20T08:54:20;102162.72;;;28.73;58.04
75359;BME280;64046;51.978;5.934;2023-08-20T08:56:54;102155.41;;;28.83;57.84
75359;BME280;64046;51.978;5.934;2023-08-20T08:59:41;102162.44;;;28.76;58.25
75359;BME280;64046;51.978;5.934;2023-08-20T09:02:17;102162.22;;;29.13;54.74
75359;BME280;64046;51.978;5.934;2023-08-20T09:04:49;102162.81;;;28.81;55.22
75359;BME280;64046;51.978;5.934;2023-08-20T09:07:26;102160.84;;;29.09;55.21
75359;BME280;64046;51.978;5.934;2023-08-20T09:10:25;102160.91;;;29.17;53.18
75359;BME280;64046;51.978;5.934;2023-08-20T09:12:56;102159.22;;;28.98;53.70
75359;BME280;64046;51.978;5.934;2023-08-20T09:15:34;102168.94;;;29.27;52.98
75359;BME280;64046;51.978;5.934;2023-08-20T09:18:11;102165.44;;;29.35;52.12
75359;BME280;64046;51.978;5.934;2023-08-20T09:20:51;102165.22;;;29.28;51.80
75359;BME280;64046;51.978;5.934;2023-08-20T09:23:24;102161.88;;;29.34;51.56
75359;BME280;64046;51.978;5.934;2023-08-20T09:26:01;102157.28;;;29.53;50.76
75359;BME280;64046;51.978;5.934;2023-08-20T09:28:40;102154.69;;;29.51;49.49
75359;BME280;64046;51.978;5.934;2023-08-20T09:31:14;102163.34;;;29.55;49.54
75359;BME280;64046;51.978;5.934;2023-08-20T09:33:50;102150.06;;;29.70;48.71
75359;BME280;64046;51.978;5.934;2023-08-20T09:36:30;102155.50;;;29.78;47.76
75359;BME280;64046;51.978;5.934;2023-08-20T09:39:02;102156.00;;;29.74;47.16
75359;BME280;64046;51.978;5.934;2023-08-20T09:41:36;102158.44;;;29.85;46.57
75359;BME280;64046;51.978;5.934;2023-08-20T09:44:06;102154.63;;;29.69;47.04
75359;BME280;64046;51.978;5.934;2023-08-20T09:46:39;102159.44;;;29.84;47.08
75359;BME280;64046;51.978;5.934;2023-08-20T09:49:12;102158.28;;;29.87;46.55
75359;BME280;64046;51.978;5.934;2023-08-20T09:51:49;102147.97;;;29.90;46.76
75359;BME280;64046;51.978;5.934;2023-08-20T09:54:25;102161.19;;;30.01;47.24
75359;BME280;64046;51.978;5.934;2023-08-20T09:57:01;102157.69;;;30.09;46.13
75359;BME280;64046;51.978;5.934;2023-08-20T09:59:34;102164.06;;;30.00;44.73
75359;BME280;64046;51.978;5.934;2023-08-20T10:02:12;102158.75;;;29.82;44.36
75359;BME280;64046;51.978;5.934;2023-08-20T10:04:45;102162.19;;;29.58;44.81
75359;BME280;64046;51.978;5.934;2023-08-20T10:07:16;102164.28;;;29.38;45.24
75359;BME280;64046;51.978;5.934;2023-08-20T10:09:46;102161.97;;;29.51;45.57
75359;BME280;64046;51.978;5.934;2023-08-20T10:12:24;102153.13;;;29.75;45.82
75359;BME280;64046;51.978;5.934;2023-08-20T10:15:07;102165.56;;;29.94;45.24
75359;BME280;64046;51.978;5.934;2023-08-20T10:17:40;102174.66;;;29.85;45.73
75359;BME280;64046;51.978;5.934;2023-08-20T10:20:14;102164.97;;;29.82;45.60
75359;BME280;64046;51.978;5.934;2023-08-20T10:22:45;102172.13;;;29.83;46.27
75359;BME280;64046;51.978;5.934;2023-08-20T10:25:25;102169.47;;;30.00;45.15
75359;BME280;64046;51.978;5.934;2023-08-20T10:28:12;102165.41;;;29.96;45.24
75359;BME280;64046;51.978;5.934;2023-08-20T10:31:04;102165.59;;;30.02;45.02
75359;BME280;64046;51.978;5.934;2023-08-20T10:33:36;102176.25;;;29.69;45.99
75359;BME280;64046;51.978;5.934;2023-08-20T10:36:15;102170.09;;;29.85;46.17
75359;BME280;64046;51.978;5.934;2023-08-20T10:38:45;102169.34;;;29.75;45.96
75359;BME280;64046;51.978;5.934;2023-08-20T10:41:17;102172.22;;;29.74;46.11
75359;BME280;64046;51.978;5.934;2023-08-20T10:44:03;102182.84;;;30.10;45.15
75359;BME280;64046;51.978;5.934;2023-08-20T10:46:33;102173.59;;;29.78;44.13
75359;BME280;64046;51.978;5.934;2023-08-20T10:49:22;102168.75;;;29.90;44.02
75359;BME280;64046;51.978;5.934;2023-08-20T10:51:52;102166.22;;;29.88;43.59
75359;BME280;64046;51.978;5.934;2023-08-20T10:54:23;102176.53;;;29.93;42.94
75359;BME280;64046;51.978;5.934;2023-08-20T10:56:57;102169.34;;;30.10;42.55
75359;BME280;64046;51.978;5.934;2023-08-20T10:59:32;102168.84;;;30.14;41.80
75359;BME280;64046;51.978;5.934;2023-08-20T11:02:03;102170.81;;;29.96;42.01
75359;BME280;64046;51.978;5.934;2023-08-20T11:04:35;102169.13;;;29.95;41.97
75359;BME280;64046;51.978;5.934;2023-08-20T11:07:06;102173.03;;;30.00;41.63
75359;BME280;64046;51.978;5.934;2023-08-20T11:09:37;102172.75;;;30.20;41.06
75359;BME280;64046;51.978;5.934;2023-08-20T11:12:08;102174.56;;;30.11;40.95
75359;BME280;64046;51.978;5.934;2023-08-20T11:14:44;102175.28;;;30.22;40.49
75359;BME280;64046;51.978;5.934;2023-08-20T11:17:16;102169.50;;;30.08;40.66
75359;BME280;64046;51.978;5.934;2023-08-20T11:19:48;102173.13;;;30.33;40.71
75359;BME280;64046;51.978;5.934;2023-08-20T11:22:19;102173.78;;;30.19;40.00
75359;BME280;64046;51.978;5.934;2023-08-20T11:24:49;102167.66;;;30.17;40.01
75359;BME280;64046;51.978;5.934;2023-08-20T11:27:30;102174.84;;;30.43;39.73
75359;BME280;64046;51.978;5.934;2023-08-20T11:30:07;102171.44;;;30.41;39.89
75359;BME280;64046;51.978;5.934;2023-08-20T11:32:38;102171.56;;;30.23;39.80
75359;BME280;64046;51.978;5.934;2023-08-20T11:35:09;102166.53;;;30.28;39.36
75359;BME280;64046;51.978;5.934;2023-08-20T11:37:40;102165.84;;;30.34;39.25
75359;BME280;64046;51.978;5.934;2023-08-20T11:40:11;102163.47;;;30.31;38.76
75359;BME280;64046;51.978;5.934;2023-08-20T11:42:44;102161.78;;;30.30;39.38
75359;BME280;64046;51.978;5.934;2023-08-20T11:45:17;102155.69;;;30.28;38.91
75359;BME280;64046;51.978;5.934;2023-08-20T11:47:49;102156.50;;;30.20;39.46
75359;BME280;64046;51.978;5.934;2023-08-20T11:50:20;102157.38;;;30.29;39.37
75359;BME280;64046;51.978;5.934;2023-08-20T11:52:52;102157.22;;;30.38;39.02
75359;BME280;64046;51.978;5.934;2023-08-20T11:55:23;102154.19;;;30.33;38.74
75359;BME280;64046;51.978;5.934;2023-08-20T11:57:55;102154.16;;;30.25;38.45
75359;BME280;64046;51.978;5.934;2023-08-20T12:00:30;102156.56;;;30.45;38.04
75359;BME280;64046;51.978;5.934;2023-08-20T12:03:04;102152.66;;;30.31;37.65
75359;BME280;64046;51.978;5.934;2023-08-20T12:05:41;102151.78;;;30.14;37.97
75359;BME280;64046;51.978;5.934;2023-08-20T12:08:15;102140.16;;;30.30;38.18
75359;BME280;64046;51.978;5.934;2023-08-20T12:10:46;102140.66;;;30.25;38.60
75359;BME280;64046;51.978;5.934;2023-08-20T12:13:19;102148.63;;;30.43;38.86
75359;BME280;64046;51.978;5.934;2023-08-20T12:15:51;102136.97;;;30.43;38.25
75359;BME280;64046;51.978;5.934;2023-08-20T12:18:20;102126.59;;;30.22;38.54
75359;BME280;64046;51.978;5.934;2023-08-20T12:20:52;102141.34;;;30.35;38.23
75359;BME280;64046;51.978;5.934;2023-08-20T12:23:24;102130.69;;;30.34;38.17
75359;BME280;64046;51.978;5.934;2023-08-20T12:25:54;102127.63;;;30.20;38.19
75359;BME280;64046;51.978;5.934;2023-08-20T12:28:23;102133.22;;;30.19;38.39
75359;BME280;64046;51.978;5.934;2023-08-20T12:30:56;102129.31;;;30.30;38.35
75359;BME280;64046;51.978;5.934;2023-08-20T12:33:27;102124.72;;;30.06;38.13
75359;BME280;64046;51.978;5.934;2023-08-20T12:35:59;102123.38;;;30.10;38.56
75359;BME280;64046;51.978;5.934;2023-08-20T12:38:31;102121.50;;;30.10;38.80
75359;BME280;64046;51.978;5.934;2023-08-20T12:41:02;102130.03;;;30.32;38.47
75359;BME280;64046;51.978;5.934;2023-08-20T12:43:32;102123.72;;;30.23;38.57
75359;BME280;64046;51.978;5.934;2023-08-20T12:46:05;102121.59;;;30.43;38.22
75359;BME280;64046;51.978;5.934;2023-08-20T12:48:45;102127.38;;;30.57;38.11
75359;BME280;64046;51.978;5.934;2023-08-20T12:51:19;102126.63;;;30.38;37.98
75359;BME280;64046;51.978;5.934;2023-08-20T12:53:49;102126.47;;;30.40;38.39
75359;BME280;64046;51.978;5.934;2023-08-20T12:56:23;102126.97;;;30.35;38.21
75359;BME280;64046;51.978;5.934;2023-08-20T12:58:58;102120.72;;;30.34;38.36
75359;BME280;64046;51.978;5.934;2023-08-20T13:01:35;102129.03;;;30.58;37.92
75359;BME280;64046;51.978;5.934;2023-08-20T13:04:07;102137.00;;;30.51;38.37
75359;BME280;64046;51.978;5.934;2023-08-20T13:06:40;102132.09;;;30.54;38.12
75359;BME280;64046;51.978;5.934;2023-08-20T13:09:13;102127.72;;;30.53;38.72
75359;BME280;64046;51.978;5.934;2023-08-20T13:11:47;102127.19;;;30.66;38.52
75359;BME280;64046;51.978;5.934;2023-08-20T13:14:18;102137.16;;;30.49;38.89
75359;BME280;64046;51.978;5.934;2023-08-20T13:16:54;102132.63;;;30.66;38.49